Fuji Maru — JD2030 — position and weather

sailwx.info

Track history (hours):
 
Tides and Currents Weather Stations Pressure Air Temp Water Temp Dewpoint Dewpoint Depression Visibility Wind Speed Wind Dir Waves Ship Positions

Fuji Maru

Last reported at 2017-Nov-24 16:00 UTC. Time now 2017-Nov-24 16:17 UTC.
Position N 35°39' E 139°46'.

Length 38 m; draft 4.4 m.

Type: Tug. MMSI: 431001102.

Date/timePositionNaut miles runAvg speedWind from/ knotsBaromVisibWave heightAir tempDewpointWater temp
2017-Nov-24 16:00N 35°39' E 139°46'0 0.0
2017-Nov-24 15:29N 35°39' E 139°46'0 0.0
2017-Nov-24 14:56N 35°39' E 139°46'0 0.0
2017-Nov-24 14:30N 35°39' E 139°46'0 0.0
2017-Nov-24 13:59N 35°39' E 139°46'0 0.0
2017-Nov-24 13:30N 35°39' E 139°46'0 0.0
2017-Nov-24 12:59N 35°39' E 139°46'0 0.0
2017-Nov-24 12:30N 35°39' E 139°46'0 0.0
2017-Nov-24 12:00N 35°39' E 139°46'0 0.0
2017-Nov-24 11:30N 35°39' E 139°46'0 0.0
2017-Nov-24 11:00N 35°39' E 139°46'0 0.0
2017-Nov-24 10:30N 35°39' E 139°46'0 0.0
2017-Nov-24 10:00N 35°39' E 139°46'1 1.6
2017-Nov-24 09:30N 35°38' E 139°46'3 5.1
2017-Nov-24 09:00N 35°36' E 139°48'2 4.3
2017-Nov-24 08:30N 35°38' E 139°46'1 2.5
2017-Nov-24 08:00N 35°39' E 139°46'0 0.0
2017-Nov-24 07:29N 35°39' E 139°46'0 0.0
2017-Nov-24 07:00N 35°39' E 139°46'0 0.8
2017-Nov-24 06:30N 35°38' E 139°46'3 5.7
2017-Nov-24 06:00N 35°36' E 139°48'0 0.2
2017-Nov-24 05:30N 35°36' E 139°48'1 2.4
2017-Nov-24 05:00N 35°37' E 139°46'2 4.2
2017-Nov-24 04:27N 35°39' E 139°46'0 0.0
2017-Nov-24 03:59N 35°39' E 139°46'0 0.0
2017-Nov-24 03:30N 35°39' E 139°46'0 0.0
2017-Nov-24 02:45N 35°39' E 139°46'0 0.0
2017-Nov-24 02:25N 35°39' E 139°46'0 0.0
2017-Nov-24 01:38N 35°39' E 139°46'0 0.0
2017-Nov-24 01:24N 35°39' E 139°46'0 0.0
2017-Nov-24 00:19N 35°39' E 139°46'0 0.0
2017-Nov-24 00:00N 35°39' E 139°46'0 0.0
2017-Nov-23 23:30N 35°39' E 139°46'0 0.0
2017-Nov-23 23:00N 35°39' E 139°46'0 0.0
2017-Nov-23 22:30N 35°39' E 139°46'0 0.0
2017-Nov-23 22:00N 35°39' E 139°46'0 0.0
2017-Nov-23 21:30N 35°39' E 139°46'0 0.0
2017-Nov-23 21:00N 35°39' E 139°46'0 0.0
2017-Nov-23 20:30N 35°39' E 139°46'0 0.0
2017-Nov-23 20:00N 35°39' E 139°46'0 0.0
2017-Nov-23 19:30N 35°39' E 139°46'0 0.0
2017-Nov-23 19:00N 35°39' E 139°46'0 0.0
2017-Nov-23 18:30N 35°39' E 139°46'0 0.0
2017-Nov-23 18:00N 35°39' E 139°46'0 0.0
2017-Nov-23 17:30N 35°39' E 139°46'0 0.0
2017-Nov-23 17:00N 35°39' E 139°46'0 0.0
2017-Nov-23 16:30N 35°39' E 139°46'0 0.0
2017-Nov-23 16:00N 35°39' E 139°46'0 0.0
2017-Nov-23 15:30N 35°39' E 139°46'0 0.0
2017-Nov-23 15:00N 35°39' E 139°46'0 0.0
2017-Nov-23 14:30N 35°39' E 139°46'0 0.0
2017-Nov-23 13:57N 35°39' E 139°46'0 0.0
2017-Nov-23 13:30N 35°39' E 139°46'0 0.0
2017-Nov-23 12:47N 35°39' E 139°46'2 7.7
2017-Nov-23 12:30N 35°37' E 139°46'1 2.7
2017-Nov-23 12:00N 35°36' E 139°47'2 4.8
2017-Nov-23 11:30N 35°34' E 139°49'0 0.8
2017-Nov-23 11:00N 35°34' E 139°49'2 4.9
2017-Nov-23 10:30N 35°36' E 139°47'0 0.0
2017-Nov-23 10:00N 35°36' E 139°47'0 0.0
2017-Nov-23 09:30N 35°36' E 139°47'1 1.6
2017-Nov-23 09:00N 35°36' E 139°47'2 3.7
2017-Nov-23 08:30N 35°38' E 139°46'1 1.7
2017-Nov-23 07:59N 35°39' E 139°46'0 0.0
2017-Nov-23 07:29N 35°39' E 139°46'0 0.0
2017-Nov-23 07:00N 35°39' E 139°46'0 0.0
2017-Nov-23 06:28N 35°39' E 139°46'0 0.0
2017-Nov-23 06:00N 35°39' E 139°46'0 0.0
2017-Nov-23 05:30N 35°39' E 139°46'0 0.0
2017-Nov-23 04:59N 35°39' E 139°46'0 0.0
2017-Nov-23 04:30N 35°39' E 139°46'0 0.0
2017-Nov-23 03:54N 35°39' E 139°46'0 0.0
2017-Nov-23 03:30N 35°39' E 139°46'0 0.0
2017-Nov-23 02:58N 35°39' E 139°46'0 0.0
2017-Nov-23 02:30N 35°39' E 139°46'0 0.0
2017-Nov-23 01:59N 35°39' E 139°46'0 0.0
2017-Nov-23 01:29N 35°39' E 139°46'0 0.0
2017-Nov-23 01:00N 35°39' E 139°46'0 0.0
2017-Nov-23 00:30N 35°39' E 139°46'0 0.0
2017-Nov-23 00:00N 35°39' E 139°46'2 4.5
2017-Nov-22 23:30N 35°37' E 139°47'1 1.2
2017-Nov-22 23:00N 35°36' E 139°47'2 5.0
2017-Nov-22 22:30N 35°34' E 139°49'0 0.7
2017-Nov-22 22:00N 35°34' E 139°48'2 4.2
2017-Nov-22 21:30N 35°36' E 139°46'0 0.0
2017-Nov-22 21:00N 35°36' E 139°46'0 0.0
2017-Nov-22 20:30N 35°36' E 139°46'1 2.2
2017-Nov-22 20:00N 35°37' E 139°46'2 3.4
2017-Nov-22 19:30N 35°38' E 139°46'  
2017-Nov-20 00:30N 35°39' E 139°46'0 0.0
2017-Nov-20 00:00N 35°39' E 139°46'0 0.0
2017-Nov-19 23:30N 35°39' E 139°46'0 0.0
2017-Nov-19 23:00N 35°39' E 139°46'0 0.0
2017-Nov-19 22:30N 35°39' E 139°46'0 0.0
2017-Nov-19 22:00N 35°39' E 139°46'0 0.0
2017-Nov-19 21:30N 35°39' E 139°46'0 0.0
2017-Nov-19 21:00N 35°39' E 139°46'0 0.0
2017-Nov-19 20:30N 35°39' E 139°46'0 0.0
2017-Nov-19 20:00N 35°39' E 139°46'0 0.0
2017-Nov-19 19:30N 35°39' E 139°46'0 0.0
2017-Nov-19 19:00N 35°39' E 139°46'0 0.0
2017-Nov-19 18:30N 35°39' E 139°46'0 0.0
2017-Nov-19 18:01N 35°39' E 139°46'3 6.1
2017-Nov-19 17:30N 35°36' E 139°46'0 0.5
2017-Nov-19 17:00N 35°36' E 139°47'4 8.0
2017-Nov-19 16:29N 35°33' E 139°51'2 3.8
2017-Nov-19 16:00N 35°34' E 139°49'510.1
2017-Nov-19 15:30N 35°38' E 139°45'0 0.1
2017-Nov-19 15:00N 35°38' E 139°45'0 0.0
2017-Nov-19 14:30N 35°38' E 139°45'0 0.0
2017-Nov-19 14:00N 35°38' E 139°45'0 0.0
2017-Nov-19 13:30N 35°38' E 139°45'1 1.4
2017-Nov-19 13:00N 35°38' E 139°46'1 2.3
2017-Nov-19 12:30N 35°37' E 139°47'0 0.6
2017-Nov-19 12:00N 35°36' E 139°47'3 5.6
2017-Nov-19 11:30N 35°34' E 139°49'0 0.3
2017-Nov-19 11:00N 35°34' E 139°49'5 9.7
2017-Nov-19 10:30N 35°38' E 139°45'0 0.0
2017-Nov-19 10:00N 35°38' E 139°45'2 3.7
2017-Nov-19 09:30N 35°36' E 139°46'1 1.9
2017-Nov-19 09:00N 35°36' E 139°47'3 5.1
2017-Nov-19 08:30N 35°34' E 139°49'0 0.2
2017-Nov-19 08:00N 35°34' E 139°49'3 6.5
2017-Nov-19 07:30N 35°37' E 139°47'0 0.3
2017-Nov-19 07:00N 35°37' E 139°47'2 4.7
2017-Nov-19 06:30N 35°39' E 139°46'0 0.0
2017-Nov-19 06:00N 35°39' E 139°46'0 0.0
2017-Nov-19 05:30N 35°39' E 139°46'0 0.0
2017-Nov-19 05:00N 35°39' E 139°46'0 0.0
2017-Nov-19 04:30N 35°39' E 139°46'0 0.0
2017-Nov-19 04:00N 35°39' E 139°46'0 0.0
2017-Nov-19 03:30N 35°39' E 139°46'0 0.0
2017-Nov-19 03:00N 35°39' E 139°46'0 0.0
2017-Nov-19 02:30N 35°39' E 139°46'0 0.0
2017-Nov-19 02:00N 35°39' E 139°46'0 0.0
2017-Nov-19 01:30N 35°39' E 139°46'0 0.0
2017-Nov-19 01:00N 35°39' E 139°46'0 0.2
2017-Nov-19 00:30N 35°39' E 139°46'0 0.2
2017-Nov-19 00:00N 35°39' E 139°46'1 1.9
2017-Nov-18 23:30N 35°38' E 139°46'1 2.5
2017-Nov-18 22:54N 35°36' E 139°46'1 2.2
2017-Nov-18 22:27N 35°36' E 139°47'2 5.5
2017-Nov-18 22:00N 35°34' E 139°49'0 0.6
2017-Nov-18 21:30N 35°34' E 139°49'2 4.4
2017-Nov-18 20:58N 35°35' E 139°47'1 1.2
2017-Nov-18 20:24N 35°36' E 139°46'0 1.0
2017-Nov-18 19:55N 35°36' E 139°46'2 0.1
2017-Nov-18 05:21N 35°39' E 139°46'3 7.7
2017-Nov-18 05:00N 35°36' E 139°48'1 2.4
2017-Nov-18 04:29N 35°36' E 139°46'2 0.2
2017-Nov-17 14:36N 35°38' E 139°46'1 5.6
2017-Nov-17 14:29N 35°38' E 139°46'2 3.0
2017-Nov-17 13:54N 35°36' E 139°46'1 3.1
2017-Nov-17 13:30N 35°35' E 139°47'2 4.4
2017-Nov-17 13:00N 35°34' E 139°50'1 1.2
2017-Nov-17 12:30N 35°34' E 139°49'2 4.6
2017-Nov-17 12:00N 35°35' E 139°47'0 0.0
2017-Nov-17 11:30N 35°35' E 139°47'0 0.0
2017-Nov-17 11:00N 35°35' E 139°47'0 0.0
2017-Nov-17 10:30N 35°35' E 139°47'0 0.6
2017-Nov-17 10:00N 35°36' E 139°47'1 1.0
2017-Nov-17 09:27N 35°36' E 139°47'1 2.6
2017-Nov-17 08:59N 35°36' E 139°46'1 2.0
2017-Nov-17 08:30N 35°37' E 139°46'1 0.5
2017-Nov-17 07:14N 35°38' E 139°46'2 7.5
2017-Nov-17 06:57N 35°36' E 139°47'1 2.5
2017-Nov-17 06:23N 35°37' E 139°46'1 0.2
2017-Nov-17 00:40N 35°38' E 139°46'210.0
2017-Nov-17 00:25N 35°36' E 139°47'1 1.2
2017-Nov-16 23:47N 35°36' E 139°48'2 5.9
2017-Nov-16 23:30N 35°35' E 139°48'2 1.8
2017-Nov-16 22:37N 35°36' E 139°46'1 4.6
2017-Nov-16 22:30N 35°36' E 139°47'3 5.3
2017-Nov-16 22:00N 35°34' E 139°50'0 0.2
2017-Nov-16 21:29N 35°34' E 139°49'3 6.4
2017-Nov-16 20:57N 35°36' E 139°46'2 0.2
2017-Nov-16 11:22N 35°38' E 139°46'2 5.3
2017-Nov-16 10:59N 35°36' E 139°47'0 0.4
2017-Nov-16 10:30N 35°36' E 139°47'3 3.5
2017-Nov-16 09:46N 35°34' E 139°49'0 0.4
2017-Nov-16 09:27N 35°34' E 139°49'0 0.5
2017-Nov-16 09:00N 35°35' E 139°49'2 1.0
2017-Nov-16 06:46N 35°36' E 139°46'0 0.9
2017-Nov-16 06:18N 35°36' E 139°47'2 6.9
2017-Nov-16 06:00N 35°34' E 139°49'3 5.2
2017-Nov-16 05:26N 35°36' E 139°46'2 0.3
2017-Nov-15 23:45N 35°38' E 139°46'2 9.3
2017-Nov-15 23:30N 35°36' E 139°47'1 1.0
2017-Nov-15 22:59N 35°36' E 139°47'2 4.5
2017-Nov-15 22:30N 35°34' E 139°49'2 4.6
2017-Nov-15 22:00N 35°35' E 139°47'0 0.2
2017-Nov-15 21:19N 35°35' E 139°47'1 3.5
2017-Nov-15 21:00N 35°37' E 139°47'2 2.5
2017-Nov-15 20:17N 35°38' E 139°45'0 0.0
2017-Nov-15 10:37N 35°39' E 139°46'5 3.4
2017-Nov-15 09:17N 35°35' E 139°48'0 1.4
2017-Nov-15 09:00N 35°35' E 139°48'1 2.6
2017-Nov-15 08:30N 35°36' E 139°47'3 0.3
2017-Nov-14 23:44N 35°39' E 139°46'3 9.5
2017-Nov-14 23:24N 35°35' E 139°47'0 0.4
2017-Nov-14 22:58N 35°35' E 139°47'4 0.8
2017-Nov-14 18:19N 35°39' E 139°46'  
Track history (hours):
 
Tides and Currents Weather Stations Pressure Air Temp Water Temp Dewpoint Dewpoint Depression Visibility Wind Speed Wind Dir Waves Ship Positions

Fuji Maru

Last reported at 2017-Nov-24 16:00 UTC. Time now 2017-Nov-24 16:17 UTC.
Position N 35°39' E 139°46'.

Length 38 m; draft 4.4 m.

Type: Tug. MMSI: 431001102.

Date/timePositionNaut miles runAvg speedWind from/ knotsBaromVisibWave heightAir tempDewpointWater temp
2017-Nov-24 16:00N 35°39' E 139°46'0 0.0
2017-Nov-24 15:29N 35°39' E 139°46'0 0.0
2017-Nov-24 14:56N 35°39' E 139°46'0 0.0
2017-Nov-24 14:30N 35°39' E 139°46'0 0.0
2017-Nov-24 13:59N 35°39' E 139°46'0 0.0
2017-Nov-24 13:30N 35°39' E 139°46'0 0.0
2017-Nov-24 12:59N 35°39' E 139°46'0 0.0
2017-Nov-24 12:30N 35°39' E 139°46'0 0.0
2017-Nov-24 12:00N 35°39' E 139°46'0 0.0
2017-Nov-24 11:30N 35°39' E 139°46'0 0.0
2017-Nov-24 11:00N 35°39' E 139°46'0 0.0
2017-Nov-24 10:30N 35°39' E 139°46'0 0.0
2017-Nov-24 10:00N 35°39' E 139°46'1 1.6
2017-Nov-24 09:30N 35°38' E 139°46'3 5.1
2017-Nov-24 09:00N 35°36' E 139°48'2 4.3
2017-Nov-24 08:30N 35°38' E 139°46'1 2.5
2017-Nov-24 08:00N 35°39' E 139°46'0 0.0
2017-Nov-24 07:29N 35°39' E 139°46'0 0.0
2017-Nov-24 07:00N 35°39' E 139°46'0 0.8
2017-Nov-24 06:30N 35°38' E 139°46'3 5.7
2017-Nov-24 06:00N 35°36' E 139°48'0 0.2
2017-Nov-24 05:30N 35°36' E 139°48'1 2.4
2017-Nov-24 05:00N 35°37' E 139°46'2 4.2
2017-Nov-24 04:27N 35°39' E 139°46'0 0.0
2017-Nov-24 03:59N 35°39' E 139°46'0 0.0
2017-Nov-24 03:30N 35°39' E 139°46'0 0.0
2017-Nov-24 02:45N 35°39' E 139°46'0 0.0
2017-Nov-24 02:25N 35°39' E 139°46'0 0.0
2017-Nov-24 01:38N 35°39' E 139°46'0 0.0
2017-Nov-24 01:24N 35°39' E 139°46'0 0.0
2017-Nov-24 00:19N 35°39' E 139°46'0 0.0
2017-Nov-24 00:00N 35°39' E 139°46'0 0.0
2017-Nov-23 23:30N 35°39' E 139°46'0 0.0
2017-Nov-23 23:00N 35°39' E 139°46'0 0.0
2017-Nov-23 22:30N 35°39' E 139°46'0 0.0
2017-Nov-23 22:00N 35°39' E 139°46'0 0.0
2017-Nov-23 21:30N 35°39' E 139°46'0 0.0
2017-Nov-23 21:00N 35°39' E 139°46'0 0.0
2017-Nov-23 20:30N 35°39' E 139°46'0 0.0
2017-Nov-23 20:00N 35°39' E 139°46'0 0.0
2017-Nov-23 19:30N 35°39' E 139°46'0 0.0
2017-Nov-23 19:00N 35°39' E 139°46'0 0.0
2017-Nov-23 18:30N 35°39' E 139°46'0 0.0
2017-Nov-23 18:00N 35°39' E 139°46'0 0.0
2017-Nov-23 17:30N 35°39' E 139°46'0 0.0
2017-Nov-23 17:00N 35°39' E 139°46'0 0.0
2017-Nov-23 16:30N 35°39' E 139°46'0 0.0
2017-Nov-23 16:00N 35°39' E 139°46'0 0.0
2017-Nov-23 15:30N 35°39' E 139°46'0 0.0
2017-Nov-23 15:00N 35°39' E 139°46'0 0.0
2017-Nov-23 14:30N 35°39' E 139°46'0 0.0
2017-Nov-23 13:57N 35°39' E 139°46'0 0.0
2017-Nov-23 13:30N 35°39' E 139°46'0 0.0
2017-Nov-23 12:47N 35°39' E 139°46'2 7.7
2017-Nov-23 12:30N 35°37' E 139°46'1 2.7
2017-Nov-23 12:00N 35°36' E 139°47'2 4.8
2017-Nov-23 11:30N 35°34' E 139°49'0 0.8
2017-Nov-23 11:00N 35°34' E 139°49'2 4.9
2017-Nov-23 10:30N 35°36' E 139°47'0 0.0
2017-Nov-23 10:00N 35°36' E 139°47'0 0.0
2017-Nov-23 09:30N 35°36' E 139°47'1 1.6
2017-Nov-23 09:00N 35°36' E 139°47'2 3.7
2017-Nov-23 08:30N 35°38' E 139°46'1 1.7
2017-Nov-23 07:59N 35°39' E 139°46'0 0.0
2017-Nov-23 07:29N 35°39' E 139°46'0 0.0
2017-Nov-23 07:00N 35°39' E 139°46'0 0.0
2017-Nov-23 06:28N 35°39' E 139°46'0 0.0
2017-Nov-23 06:00N 35°39' E 139°46'0 0.0
2017-Nov-23 05:30N 35°39' E 139°46'0 0.0
2017-Nov-23 04:59N 35°39' E 139°46'0 0.0
2017-Nov-23 04:30N 35°39' E 139°46'0 0.0
2017-Nov-23 03:54N 35°39' E 139°46'0 0.0
2017-Nov-23 03:30N 35°39' E 139°46'0 0.0
2017-Nov-23 02:58N 35°39' E 139°46'0 0.0
2017-Nov-23 02:30N 35°39' E 139°46'0 0.0
2017-Nov-23 01:59N 35°39' E 139°46'0 0.0
2017-Nov-23 01:29N 35°39' E 139°46'0 0.0
2017-Nov-23 01:00N 35°39' E 139°46'0 0.0
2017-Nov-23 00:30N 35°39' E 139°46'0 0.0
2017-Nov-23 00:00N 35°39' E 139°46'2 4.5
2017-Nov-22 23:30N 35°37' E 139°47'1 1.2
2017-Nov-22 23:00N 35°36' E 139°47'2 5.0
2017-Nov-22 22:30N 35°34' E 139°49'0 0.7
2017-Nov-22 22:00N 35°34' E 139°48'2 4.2
2017-Nov-22 21:30N 35°36' E 139°46'0 0.0
2017-Nov-22 21:00N 35°36' E 139°46'0 0.0
2017-Nov-22 20:30N 35°36' E 139°46'1 2.2
2017-Nov-22 20:00N 35°37' E 139°46'2 3.4
2017-Nov-22 19:30N 35°38' E 139°46'  
2017-Nov-20 00:30N 35°39' E 139°46'0 0.0
2017-Nov-20 00:00N 35°39' E 139°46'0 0.0
2017-Nov-19 23:30N 35°39' E 139°46'0 0.0
2017-Nov-19 23:00N 35°39' E 139°46'0 0.0
2017-Nov-19 22:30N 35°39' E 139°46'0 0.0
2017-Nov-19 22:00N 35°39' E 139°46'0 0.0
2017-Nov-19 21:30N 35°39' E 139°46'0 0.0
2017-Nov-19 21:00N 35°39' E 139°46'0 0.0
2017-Nov-19 20:30N 35°39' E 139°46'0 0.0
2017-Nov-19 20:00N 35°39' E 139°46'0 0.0
2017-Nov-19 19:30N 35°39' E 139°46'0 0.0
2017-Nov-19 19:00N 35°39' E 139°46'0 0.0
2017-Nov-19 18:30N 35°39' E 139°46'0 0.0
2017-Nov-19 18:01N 35°39' E 139°46'3 6.1
2017-Nov-19 17:30N 35°36' E 139°46'0 0.5
2017-Nov-19 17:00N 35°36' E 139°47'4 8.0
2017-Nov-19 16:29N 35°33' E 139°51'2 3.8
2017-Nov-19 16:00N 35°34' E 139°49'510.1
2017-Nov-19 15:30N 35°38' E 139°45'0 0.1
2017-Nov-19 15:00N 35°38' E 139°45'0 0.0
2017-Nov-19 14:30N 35°38' E 139°45'0 0.0
2017-Nov-19 14:00N 35°38' E 139°45'0 0.0
2017-Nov-19 13:30N 35°38' E 139°45'1 1.4
2017-Nov-19 13:00N 35°38' E 139°46'1 2.3
2017-Nov-19 12:30N 35°37' E 139°47'0 0.6
2017-Nov-19 12:00N 35°36' E 139°47'3 5.6
2017-Nov-19 11:30N 35°34' E 139°49'0 0.3
2017-Nov-19 11:00N 35°34' E 139°49'5 9.7
2017-Nov-19 10:30N 35°38' E 139°45'0 0.0
2017-Nov-19 10:00N 35°38' E 139°45'2 3.7
2017-Nov-19 09:30N 35°36' E 139°46'1 1.9
2017-Nov-19 09:00N 35°36' E 139°47'3 5.1
2017-Nov-19 08:30N 35°34' E 139°49'0 0.2
2017-Nov-19 08:00N 35°34' E 139°49'3 6.5
2017-Nov-19 07:30N 35°37' E 139°47'0 0.3
2017-Nov-19 07:00N 35°37' E 139°47'2 4.7
2017-Nov-19 06:30N 35°39' E 139°46'0 0.0
2017-Nov-19 06:00N 35°39' E 139°46'0 0.0
2017-Nov-19 05:30N 35°39' E 139°46'0 0.0
2017-Nov-19 05:00N 35°39' E 139°46'0 0.0
2017-Nov-19 04:30N 35°39' E 139°46'0 0.0
2017-Nov-19 04:00N 35°39' E 139°46'0 0.0
2017-Nov-19 03:30N 35°39' E 139°46'0 0.0
2017-Nov-19 03:00N 35°39' E 139°46'0 0.0
2017-Nov-19 02:30N 35°39' E 139°46'0 0.0
2017-Nov-19 02:00N 35°39' E 139°46'0 0.0
2017-Nov-19 01:30N 35°39' E 139°46'0 0.0
2017-Nov-19 01:00N 35°39' E 139°46'0 0.2
2017-Nov-19 00:30N 35°39' E 139°46'0 0.2
2017-Nov-19 00:00N 35°39' E 139°46'1 1.9
2017-Nov-18 23:30N 35°38' E 139°46'1 2.5
2017-Nov-18 22:54N 35°36' E 139°46'1 2.2
2017-Nov-18 22:27N 35°36' E 139°47'2 5.5
2017-Nov-18 22:00N 35°34' E 139°49'0 0.6
2017-Nov-18 21:30N 35°34' E 139°49'2 4.4
2017-Nov-18 20:58N 35°35' E 139°47'1 1.2
2017-Nov-18 20:24N 35°36' E 139°46'0 1.0
2017-Nov-18 19:55N 35°36' E 139°46'2 0.1
2017-Nov-18 05:21N 35°39' E 139°46'3 7.7
2017-Nov-18 05:00N 35°36' E 139°48'1 2.4
2017-Nov-18 04:29N 35°36' E 139°46'2 0.2
2017-Nov-17 14:36N 35°38' E 139°46'1 5.6
2017-Nov-17 14:29N 35°38' E 139°46'2 3.0
2017-Nov-17 13:54N 35°36' E 139°46'1 3.1
2017-Nov-17 13:30N 35°35' E 139°47'2 4.4
2017-Nov-17 13:00N 35°34' E 139°50'1 1.2
2017-Nov-17 12:30N 35°34' E 139°49'2 4.6
2017-Nov-17 12:00N 35°35' E 139°47'0 0.0
2017-Nov-17 11:30N 35°35' E 139°47'0 0.0
2017-Nov-17 11:00N 35°35' E 139°47'0 0.0
2017-Nov-17 10:30N 35°35' E 139°47'0 0.6
2017-Nov-17 10:00N 35°36' E 139°47'1 1.0
2017-Nov-17 09:27N 35°36' E 139°47'1 2.6
2017-Nov-17 08:59N 35°36' E 139°46'1 2.0
2017-Nov-17 08:30N 35°37' E 139°46'1 0.5
2017-Nov-17 07:14N 35°38' E 139°46'2 7.5
2017-Nov-17 06:57N 35°36' E 139°47'1 2.5
2017-Nov-17 06:23N 35°37' E 139°46'1 0.2
2017-Nov-17 00:40N 35°38' E 139°46'210.0
2017-Nov-17 00:25N 35°36' E 139°47'1 1.2
2017-Nov-16 23:47N 35°36' E 139°48'2 5.9
2017-Nov-16 23:30N 35°35' E 139°48'2 1.8
2017-Nov-16 22:37N 35°36' E 139°46'1 4.6
2017-Nov-16 22:30N 35°36' E 139°47'3 5.3
2017-Nov-16 22:00N 35°34' E 139°50'0 0.2
2017-Nov-16 21:29N 35°34' E 139°49'3 6.4
2017-Nov-16 20:57N 35°36' E 139°46'2 0.2
2017-Nov-16 11:22N 35°38' E 139°46'2 5.3
2017-Nov-16 10:59N 35°36' E 139°47'0 0.4
2017-Nov-16 10:30N 35°36' E 139°47'3 3.5
2017-Nov-16 09:46N 35°34' E 139°49'0 0.4
2017-Nov-16 09:27N 35°34' E 139°49'0 0.5
2017-Nov-16 09:00N 35°35' E 139°49'2 1.0
2017-Nov-16 06:46N 35°36' E 139°46'0 0.9
2017-Nov-16 06:18N 35°36' E 139°47'2 6.9
2017-Nov-16 06:00N 35°34' E 139°49'3 5.2
2017-Nov-16 05:26N 35°36' E 139°46'2 0.3
2017-Nov-15 23:45N 35°38' E 139°46'2 9.3
2017-Nov-15 23:30N 35°36' E 139°47'1 1.0
2017-Nov-15 22:59N 35°36' E 139°47'2 4.5
2017-Nov-15 22:30N 35°34' E 139°49'2 4.6
2017-Nov-15 22:00N 35°35' E 139°47'0 0.2
2017-Nov-15 21:19N 35°35' E 139°47'1 3.5
2017-Nov-15 21:00N 35°37' E 139°47'2 2.5
2017-Nov-15 20:17N 35°38' E 139°45'0 0.0
2017-Nov-15 10:37N 35°39' E 139°46'5 3.4
2017-Nov-15 09:17N 35°35' E 139°48'0 1.4
2017-Nov-15 09:00N 35°35' E 139°48'1 2.6
2017-Nov-15 08:30N 35°36' E 139°47'3 0.3
2017-Nov-14 23:44N 35°39' E 139°46'3 9.5
2017-Nov-14 23:24N 35°35' E 139°47'0 0.4
2017-Nov-14 22:58N 35°35' E 139°47'4 0.8
2017-Nov-14 18:19N 35°39' E 139°46'  

Dump ship's entire track history